createdAt,value
2022-09-11T00:01:55.765Z,100.00
2022-09-11T00:06:59.896Z,99.98
2022-09-11T00:12:02.887Z,100.00
2022-09-11T00:17:05.695Z,100.00
2022-09-11T00:22:08.389Z,100.00
2022-09-11T00:27:11.118Z,100.00
2022-09-11T00:32:16.066Z,100.00
2022-09-11T00:37:18.758Z,100.00
2022-09-11T00:42:21.521Z,100.00
2022-09-11T00:47:24.739Z,100.00
2022-09-11T00:52:31.775Z,100.00
2022-09-11T00:57:39.695Z,100.00
2022-09-11T01:02:47.033Z,100.00
2022-09-11T01:07:54.588Z,100.00
2022-09-11T01:13:36.173Z,100.00
2022-09-11T01:18:57.248Z,100.00
2022-09-11T01:24:02.792Z,99.88
2022-09-11T01:29:35.313Z,99.79
2022-09-11T01:34:54.973Z,99.72
2022-09-11T01:40:11.116Z,99.61
2022-09-11T01:45:15.641Z,99.65
2022-09-11T01:50:19.804Z,99.25
2022-09-11T01:55:30.662Z,99.09
2022-09-11T02:00:35.874Z,99.20
2022-09-11T02:05:44.387Z,99.50
2022-09-11T02:10:54.773Z,99.53
2022-09-11T02:16:04.855Z,99.57
2022-09-11T02:21:07.776Z,99.99
2022-09-11T02:26:12.319Z,99.80
2022-09-11T02:31:15.369Z,99.73
2022-09-11T02:36:47.010Z,99.53
2022-09-11T02:42:17.576Z,99.31
2022-09-11T02:47:40.911Z,98.97
2022-09-11T02:52:54.483Z,99.42
2022-09-11T02:58:06.170Z,98.64
2022-09-11T03:03:10.090Z,98.63
2022-09-11T03:08:14.959Z,98.30
2022-09-11T03:13:17.972Z,97.72
2022-09-11T03:18:21.318Z,97.42
2022-09-11T03:23:24.096Z,97.40
2022-09-11T03:28:28.683Z,97.37
2022-09-11T03:33:31.473Z,97.02
2022-09-11T03:38:34.257Z,97.00
2022-09-11T03:43:38.223Z,96.50
2022-09-11T03:48:41.752Z,95.73
2022-09-11T03:53:45.067Z,95.19
2022-09-11T03:58:48.723Z,93.88
2022-09-11T04:03:51.682Z,93.82
2022-09-11T04:09:02.522Z,93.41
2022-09-11T04:14:05.965Z,93.59
2022-09-11T04:19:10.532Z,90.71
2022-09-11T04:24:13.519Z,90.24
2022-09-11T04:29:18.151Z,89.85
2022-09-11T04:34:21.574Z,88.16
2022-09-11T04:39:25.500Z,86.13
2022-09-11T04:44:29.588Z,84.03
2022-09-11T04:49:33.456Z,82.09
2022-09-11T04:54:37.289Z,79.97
2022-09-11T04:59:44.204Z,79.52
2022-09-11T05:04:48.744Z,75.53
2022-09-11T05:09:54.914Z,73.32
2022-09-11T05:15:01.410Z,72.87
2022-09-11T05:20:11.259Z,70.38
2022-09-11T05:25:15.176Z,68.58
2022-09-11T05:30:18.171Z,67.33
2022-09-11T05:35:25.741Z,67.89
2022-09-11T05:40:30.462Z,67.23
2022-09-11T05:45:33.737Z,64.73
2022-09-11T05:50:37.432Z,63.82
2022-09-11T05:55:43.926Z,62.91
2022-09-11T06:00:47.698Z,62.42
2022-09-11T06:05:53.970Z,61.58
2022-09-11T06:10:58.628Z,61.94
2022-09-11T06:16:03.259Z,59.55
2022-09-11T06:21:08.891Z,58.09
2022-09-11T06:26:21.690Z,58.42
2022-09-11T06:31:26.509Z,58.55
2022-09-11T06:36:31.933Z,58.34
2022-09-11T06:41:38.731Z,58.48
2022-09-11T06:46:48.707Z,58.33
2022-09-11T06:51:53.757Z,57.96
2022-09-11T06:56:57.336Z,56.19
2022-09-11T07:02:01.127Z,55.36
2022-09-11T07:07:05.518Z,54.29
2022-09-11T07:12:10.740Z,53.89
2022-09-11T07:17:13.870Z,53.91
2022-09-11T07:22:18.199Z,53.67
2022-09-11T07:33:11.952Z,53.94
2022-09-11T07:38:18.094Z,53.82
2022-09-11T07:43:30.077Z,52.27
2022-09-11T07:48:35.099Z,51.23
2022-09-11T07:53:40.497Z,50.35
2022-09-11T07:58:44.027Z,49.50
2022-09-11T08:03:49.586Z,49.33
2022-09-11T08:08:56.760Z,48.05
2022-09-11T08:13:59.551Z,47.51
2022-09-11T08:19:02.755Z,47.15
2022-09-11T08:24:07.486Z,47.23
2022-09-11T08:29:10.380Z,47.22
2022-09-11T08:34:13.120Z,47.20
2022-09-11T08:39:16.218Z,46.37
2022-09-11T08:44:46.391Z,45.82
2022-09-11T08:50:06.092Z,45.08
2022-09-11T08:55:13.715Z,45.18
2022-09-11T09:00:46.546Z,44.21
2022-09-11T09:05:56.204Z,44.27
2022-09-11T09:11:37.730Z,43.61
2022-09-11T09:16:53.167Z,44.57
2022-09-11T09:22:09.041Z,44.13
2022-09-11T09:27:16.545Z,43.99
2022-09-11T09:32:24.523Z,44.10
2022-09-11T09:37:28.609Z,44.52
2022-09-11T09:42:32.417Z,44.27
2022-09-11T09:47:37.640Z,43.50
2022-09-11T09:52:41.858Z,42.69
2022-09-11T09:57:44.772Z,42.62
2022-09-11T10:02:55.056Z,42.13
2022-09-11T10:07:58.926Z,42.33
2022-09-11T10:13:19.354Z,42.36
2022-09-11T10:18:44.218Z,42.45
2022-09-11T10:23:49.037Z,43.01
2022-09-11T10:28:59.472Z,42.28
2022-09-11T10:34:02.511Z,42.10
2022-09-11T10:39:05.388Z,42.61
2022-09-11T10:44:13.528Z,42.50
2022-09-11T10:49:17.856Z,42.33
2022-09-11T10:54:45.074Z,42.81
2022-09-11T11:00:25.998Z,43.24
2022-09-11T11:05:53.910Z,43.24
2022-09-11T11:11:26.145Z,43.37
2022-09-11T11:17:06.081Z,43.20
2022-09-11T11:22:27.944Z,43.21
2022-09-11T11:27:33.480Z,43.73
2022-09-11T11:33:11.298Z,43.77
2022-09-11T11:38:25.290Z,44.30
2022-09-11T11:43:33.116Z,45.01
2022-09-11T11:48:47.035Z,45.66
2022-09-11T11:54:12.941Z,46.61
2022-09-11T11:59:23.785Z,46.83
2022-09-11T12:04:58.867Z,47.79
2022-09-11T12:10:02.481Z,48.37
2022-09-11T12:15:08.855Z,49.22
2022-09-11T12:20:40.966Z,50.75
2022-09-11T12:25:50.389Z,51.60
2022-09-11T12:31:00.519Z,52.67
2022-09-11T12:36:07.839Z,53.62
2022-09-11T12:41:17.680Z,54.62
2022-09-11T12:46:26.669Z,55.51
2022-09-11T12:51:41.552Z,56.53
2022-09-11T12:56:52.409Z,57.26
2022-09-11T13:01:56.912Z,57.63
2022-09-11T13:07:05.733Z,58.45
2022-09-11T13:12:26.277Z,58.63
2022-09-11T13:17:49.601Z,58.92
2022-09-11T13:22:58.276Z,59.47
2022-09-11T13:28:07.334Z,59.33
2022-09-11T13:33:22.136Z,59.84
2022-09-11T13:38:30.964Z,59.65
2022-09-11T13:43:45.716Z,60.47
2022-09-11T13:48:51.214Z,60.43
2022-09-11T13:53:58.727Z,60.61
2022-09-11T13:59:15.665Z,60.56
2022-09-11T14:04:27.708Z,61.28
2022-09-11T14:09:36.240Z,61.79
2022-09-11T14:14:47.375Z,61.82
2022-09-11T14:19:51.940Z,62.10
2022-09-11T14:25:07.147Z,62.04
2022-09-11T14:30:36.286Z,62.60
2022-09-11T14:35:40.010Z,62.61
2022-09-11T14:41:02.613Z,63.00
2022-09-11T14:46:05.644Z,63.36
2022-09-11T14:51:13.742Z,63.77
2022-09-11T14:56:16.652Z,63.88
2022-09-11T15:01:19.506Z,64.25
2022-09-11T15:06:22.387Z,64.61
2022-09-11T15:11:26.196Z,64.12
2022-09-11T15:16:28.962Z,63.63
2022-09-11T15:21:35.402Z,63.81
2022-09-11T15:26:40.248Z,64.06
2022-09-11T15:31:43.046Z,64.69
2022-09-11T15:36:45.984Z,65.21
2022-09-11T15:41:48.802Z,65.82
2022-09-11T15:46:53.993Z,65.92
2022-09-11T15:51:58.722Z,65.79
2022-09-11T15:57:03.005Z,66.03
2022-09-11T16:02:08.943Z,66.55
2022-09-11T16:07:11.701Z,66.33
2022-09-11T16:12:16.023Z,66.22
2022-09-11T16:17:21.032Z,66.68
2022-09-11T16:22:26.914Z,66.97
2022-09-11T16:27:29.667Z,67.26
2022-09-11T16:38:14.092Z,67.88
2022-09-11T16:43:20.850Z,67.60
2022-09-11T16:48:25.832Z,67.24
2022-09-11T16:53:30.342Z,67.26
2022-09-11T16:58:35.000Z,67.51
2022-09-11T17:03:41.680Z,67.41
2022-09-11T17:08:45.103Z,67.85
2022-09-11T17:13:48.736Z,68.05
2022-09-11T17:18:54.212Z,68.00
2022-09-11T17:23:57.750Z,68.55
2022-09-11T17:29:03.814Z,68.41
2022-09-11T17:34:07.819Z,68.61
2022-09-11T17:39:11.002Z,69.20
2022-09-11T17:44:14.460Z,69.14
2022-09-11T17:49:17.377Z,70.10
2022-09-11T17:54:20.093Z,70.21
2022-09-11T17:59:23.947Z,70.06
2022-09-11T18:04:26.927Z,70.35
2022-09-11T18:09:29.709Z,70.73
2022-09-11T18:14:33.067Z,71.01
2022-09-11T18:19:39.199Z,71.32
2022-09-11T18:24:41.960Z,71.24
2022-09-11T18:29:45.116Z,71.74
2022-09-11T18:34:49.005Z,71.66
2022-09-11T18:39:54.890Z,71.80
2022-09-11T18:44:57.661Z,72.38
2022-09-11T18:50:01.292Z,71.92
2022-09-11T18:55:05.580Z,72.23
2022-09-11T19:00:09.230Z,72.23
2022-09-11T19:05:12.230Z,72.45
2022-09-11T19:10:15.057Z,72.71
2022-09-11T19:15:17.806Z,72.87
2022-09-11T19:20:20.417Z,73.21
2022-09-11T19:25:23.146Z,72.79
2022-09-11T19:30:26.089Z,73.26
2022-09-11T19:35:28.741Z,73.23
2022-09-11T19:40:31.561Z,73.21
2022-09-11T19:45:34.338Z,73.02
2022-09-11T19:50:43.486Z,72.52
2022-09-11T19:55:46.152Z,72.63
2022-09-11T20:00:49.442Z,72.42
2022-09-11T20:05:54.442Z,72.43
2022-09-11T20:10:57.536Z,72.13
2022-09-11T20:16:17.902Z,72.86
2022-09-11T20:21:21.026Z,72.94
2022-09-11T20:26:26.301Z,73.99
2022-09-11T20:31:32.097Z,74.43
2022-09-11T20:36:34.972Z,75.68
2022-09-11T20:41:37.959Z,76.02
2022-09-11T20:46:41.011Z,76.58
2022-09-11T20:51:44.024Z,77.08
2022-09-11T20:56:46.870Z,78.22
2022-09-11T21:01:49.719Z,80.30
2022-09-11T21:06:56.754Z,81.59
2022-09-11T21:11:59.503Z,83.66
2022-09-11T21:17:02.619Z,85.30
2022-09-11T21:22:05.335Z,86.52
2022-09-11T21:27:07.996Z,87.33
2022-09-11T21:32:10.818Z,87.67
2022-09-11T21:37:13.483Z,88.05
2022-09-11T21:42:16.447Z,88.20
2022-09-11T21:47:19.257Z,88.47
2022-09-11T21:52:21.915Z,88.53
2022-09-11T21:57:29.115Z,88.44
2022-09-11T22:02:31.808Z,87.78
2022-09-11T22:07:34.833Z,87.55
2022-09-11T22:12:37.514Z,87.05
2022-09-11T22:17:40.213Z,86.68
2022-09-11T22:22:43.112Z,86.57
2022-09-11T22:27:46.284Z,86.43
2022-09-11T22:32:48.962Z,86.48
2022-09-11T22:37:51.640Z,86.49
2022-09-11T22:42:54.630Z,86.39
2022-09-11T22:47:59.192Z,86.22
2022-09-11T22:53:02.106Z,85.97
2022-09-11T22:58:04.740Z,85.84
2022-09-11T23:03:07.458Z,86.18
2022-09-11T23:08:10.219Z,85.55
2022-09-11T23:13:14.157Z,85.45
2022-09-11T23:18:16.907Z,86.22
2022-09-11T23:23:19.609Z,86.25
2022-09-11T23:28:22.332Z,85.95
2022-09-11T23:33:25.709Z,85.95
2022-09-11T23:38:28.344Z,86.21
2022-09-11T23:43:31.428Z,86.59
2022-09-11T23:48:34.248Z,88.64
2022-09-11T23:53:43.744Z,89.68
2022-09-11T23:58:46.969Z,91.27
